createdAt,value
2023-05-07T00:00:04.285Z,100.00
2023-05-07T00:02:32.227Z,100.00
2023-05-07T00:05:00.341Z,100.00
2023-05-07T00:07:29.751Z,100.00
2023-05-07T00:09:57.913Z,100.00
2023-05-07T00:12:26.482Z,100.00
2023-05-07T00:14:54.454Z,100.00
2023-05-07T00:17:22.448Z,100.00
2023-05-07T00:19:50.534Z,100.00
2023-05-07T00:22:18.444Z,100.00
2023-05-07T00:24:47.832Z,100.00
2023-05-07T00:27:15.700Z,100.00
2023-05-07T00:29:43.664Z,100.00
2023-05-07T00:32:11.697Z,100.00
2023-05-07T00:34:40.613Z,100.00
2023-05-07T00:37:08.528Z,100.00
2023-05-07T00:39:36.766Z,100.00
2023-05-07T00:42:06.160Z,100.00
2023-05-07T00:44:34.086Z,100.00
2023-05-07T00:47:05.754Z,100.00
2023-05-07T00:49:40.007Z,100.00
2023-05-07T00:52:09.078Z,100.00
2023-05-07T00:54:37.260Z,100.00
2023-05-07T00:57:07.416Z,100.00
2023-05-07T00:59:35.956Z,100.00
2023-05-07T01:02:03.959Z,100.00
2023-05-07T01:04:32.029Z,100.00
2023-05-07T01:07:02.718Z,100.00
2023-05-07T01:09:31.465Z,100.00
2023-05-07T01:12:00.682Z,100.00
2023-05-07T01:14:30.711Z,100.00
2023-05-07T01:16:59.918Z,100.00
2023-05-07T01:19:28.150Z,100.00
2023-05-07T01:22:03.869Z,100.00
2023-05-07T01:24:33.728Z,100.00
2023-05-07T01:27:02.452Z,100.00
2023-05-07T01:29:30.659Z,100.00
2023-05-07T01:32:00.815Z,100.00
2023-05-07T01:34:32.504Z,100.00
2023-05-07T01:37:01.563Z,100.00
2023-05-07T01:39:31.519Z,100.00
2023-05-07T01:42:01.630Z,100.00
2023-05-07T01:44:30.429Z,100.00
2023-05-07T01:46:59.474Z,100.00
2023-05-07T01:49:27.888Z,100.00
2023-05-07T01:51:56.750Z,100.00
2023-05-07T01:54:28.665Z,100.00
2023-05-07T01:56:58.118Z,100.00
2023-05-07T01:59:27.545Z,100.00
2023-05-07T02:01:55.595Z,100.00
2023-05-07T02:04:23.624Z,100.00
2023-05-07T02:06:51.482Z,100.00
2023-05-07T02:09:19.826Z,100.00
2023-05-07T02:11:47.718Z,100.00
2023-05-07T02:14:16.409Z,100.00
2023-05-07T02:16:45.757Z,100.00
2023-05-07T02:19:13.771Z,100.00
2023-05-07T02:21:41.639Z,100.00
2023-05-07T02:24:09.806Z,100.00
2023-05-07T02:26:37.695Z,100.00
2023-05-07T02:29:05.606Z,100.00
2023-05-07T02:31:34.981Z,100.00
2023-05-07T02:34:04.963Z,100.00
2023-05-07T02:36:32.946Z,100.00
2023-05-07T02:39:01.249Z,100.00
2023-05-07T02:41:29.496Z,100.00
2023-05-07T02:43:57.380Z,100.00
2023-05-07T02:46:25.400Z,100.00
2023-05-07T02:48:53.336Z,100.00
2023-05-07T02:51:25.520Z,100.00
2023-05-07T02:53:54.154Z,100.00
2023-05-07T02:56:22.096Z,100.00
2023-05-07T02:58:50.019Z,100.00
2023-05-07T03:01:18.001Z,100.00
2023-05-07T03:03:46.764Z,100.00
2023-05-07T03:06:14.700Z,100.00
2023-05-07T03:08:43.964Z,100.00
2023-05-07T03:11:12.135Z,100.00
2023-05-07T03:13:40.029Z,100.00
2023-05-07T03:16:08.667Z,100.00
2023-05-07T03:18:36.760Z,100.00
2023-05-07T03:21:04.989Z,100.00
2023-05-07T03:23:32.955Z,100.00
2023-05-07T03:26:02.226Z,100.00
2023-05-07T03:28:30.182Z,100.00
2023-05-07T03:30:58.474Z,100.00
2023-05-07T03:33:26.464Z,100.00
2023-05-07T03:35:54.389Z,100.00
2023-05-07T03:38:22.306Z,100.00
2023-05-07T03:40:50.169Z,100.00
2023-05-07T03:43:19.489Z,100.00
2023-05-07T03:45:47.417Z,100.00
2023-05-07T03:48:15.306Z,100.00
2023-05-07T03:50:43.192Z,100.00
2023-05-07T03:53:11.206Z,100.00
2023-05-07T03:55:39.067Z,100.00
2023-05-07T03:58:07.023Z,100.00
2023-05-07T04:00:39.488Z,100.00
2023-05-07T04:03:08.528Z,100.00
2023-05-07T04:05:36.657Z,100.00
2023-05-07T04:08:04.734Z,100.00
2023-05-07T04:10:32.610Z,100.00
2023-05-07T04:13:00.498Z,100.00
2023-05-07T04:15:28.473Z,100.00
2023-05-07T04:17:57.726Z,100.00
2023-05-07T04:20:25.868Z,100.00
2023-05-07T04:22:53.731Z,100.00
2023-05-07T04:25:21.709Z,100.00
2023-05-07T04:27:49.958Z,100.00
2023-05-07T04:30:18.214Z,100.00
2023-05-07T04:32:46.548Z,100.00
2023-05-07T04:35:15.866Z,100.00
2023-05-07T04:37:43.823Z,100.00
2023-05-07T04:40:12.468Z,100.00
2023-05-07T04:42:40.684Z,100.00
2023-05-07T04:45:09.685Z,100.00
2023-05-07T04:47:37.654Z,100.00
2023-05-07T04:50:06.040Z,100.00
2023-05-07T04:52:35.471Z,100.00
2023-05-07T04:55:03.689Z,100.00
2023-05-07T04:57:31.890Z,100.00
2023-05-07T04:59:59.733Z,100.00
2023-05-07T05:02:27.638Z,100.00
2023-05-07T05:04:55.635Z,100.00
2023-05-07T05:07:23.619Z,100.00
2023-05-07T05:09:52.978Z,100.00
2023-05-07T05:12:20.955Z,100.00
2023-05-07T05:14:48.937Z,100.00
2023-05-07T05:17:16.854Z,100.00
2023-05-07T05:19:44.711Z,100.00
2023-05-07T05:22:12.700Z,100.00
2023-05-07T05:24:40.793Z,100.00
2023-05-07T05:27:10.086Z,100.00
2023-05-07T05:29:38.002Z,100.00
2023-05-07T05:32:06.083Z,100.00
2023-05-07T05:34:34.710Z,100.00
2023-05-07T05:37:02.604Z,100.00
2023-05-07T05:39:43.109Z,100.00
2023-05-07T05:42:12.379Z,100.00
2023-05-07T05:44:40.354Z,100.00
2023-05-07T05:47:08.264Z,100.00
2023-05-07T05:49:36.589Z,100.00
2023-05-07T05:52:04.596Z,100.00
2023-05-07T05:54:32.441Z,100.00
2023-05-07T05:57:00.522Z,100.00
2023-05-07T05:59:29.929Z,100.00
2023-05-07T06:01:58.009Z,100.00
2023-05-07T06:04:26.092Z,100.00
2023-05-07T06:06:54.167Z,100.00
2023-05-07T06:09:22.307Z,100.00
2023-05-07T06:11:50.973Z,100.00
2023-05-07T06:14:18.954Z,100.00
2023-05-07T06:16:48.354Z,100.00
2023-05-07T06:19:26.347Z,100.00
2023-05-07T06:21:54.537Z,100.00
2023-05-07T06:24:22.378Z,100.00
2023-05-07T06:26:50.439Z,100.00
2023-05-07T06:29:18.351Z,100.00
2023-05-07T06:31:46.335Z,100.00
2023-05-07T06:34:16.194Z,100.00
2023-05-07T06:36:44.189Z,100.00
2023-05-07T06:39:12.112Z,100.00
2023-05-07T06:41:40.067Z,100.00
2023-05-07T06:44:09.793Z,100.00
2023-05-07T06:46:37.947Z,100.00
2023-05-07T06:49:06.040Z,100.00
2023-05-07T06:51:35.523Z,100.00
2023-05-07T06:54:05.458Z,100.00
2023-05-07T06:56:33.452Z,100.00
2023-05-07T06:59:02.407Z,100.00
2023-05-07T07:01:30.524Z,100.00
2023-05-07T07:03:58.414Z,100.00
2023-05-07T07:06:26.549Z,100.00
2023-05-07T07:08:55.769Z,100.00
2023-05-07T07:11:23.741Z,100.00
2023-05-07T07:13:51.779Z,100.00
2023-05-07T07:16:19.813Z,100.00
2023-05-07T07:18:47.820Z,100.00
2023-05-07T07:21:15.798Z,100.00
2023-05-07T07:23:43.729Z,100.00
2023-05-07T07:26:13.048Z,100.00
2023-05-07T07:28:47.652Z,100.00
2023-05-07T07:31:16.309Z,100.00
2023-05-07T07:33:44.416Z,100.00
2023-05-07T07:36:12.321Z,100.00
2023-05-07T07:38:40.247Z,100.00
2023-05-07T07:41:10.533Z,100.00
2023-05-07T07:43:39.794Z,100.00
2023-05-07T07:46:07.714Z,100.00
2023-05-07T07:48:35.838Z,100.00
2023-05-07T07:51:04.008Z,100.00
2023-05-07T07:53:31.959Z,100.00
2023-05-07T07:56:00.195Z,100.00
2023-05-07T07:58:28.128Z,100.00
2023-05-07T08:00:57.533Z,100.00
2023-05-07T08:03:25.517Z,100.00
2023-05-07T08:05:53.427Z,100.00
2023-05-07T08:08:21.371Z,100.00
2023-05-07T08:10:51.102Z,100.00
2023-05-07T08:13:19.966Z,100.00
2023-05-07T08:15:47.882Z,100.00
2023-05-07T08:18:17.195Z,100.00
2023-05-07T08:20:45.256Z,100.00
2023-05-07T08:23:13.401Z,100.00
2023-05-07T08:25:41.277Z,100.00
2023-05-07T08:28:10.156Z,100.00
2023-05-07T08:30:38.239Z,100.00
2023-05-07T08:33:06.328Z,100.00
2023-05-07T08:35:35.845Z,100.00
2023-05-07T08:38:04.174Z,100.00
2023-05-07T08:40:38.862Z,100.00
2023-05-07T08:43:08.439Z,100.00
2023-05-07T08:45:37.253Z,100.00
2023-05-07T08:48:11.015Z,100.00
2023-05-07T08:50:40.575Z,100.00
2023-05-07T08:53:08.633Z,100.00
2023-05-07T08:55:36.910Z,97.92
2023-05-07T08:58:07.798Z,100.00
2023-05-07T09:00:36.809Z,98.61
2023-05-07T09:03:05.007Z,95.23
2023-05-07T09:05:32.882Z,94.74
2023-05-07T09:08:05.243Z,93.58
2023-05-07T09:10:36.904Z,92.18
2023-05-07T09:13:06.365Z,92.26
2023-05-07T09:15:34.385Z,89.10
2023-05-07T09:18:03.458Z,88.73
2023-05-07T09:20:32.920Z,85.09
2023-05-07T09:23:02.323Z,84.41
2023-05-07T09:25:31.185Z,82.87
2023-05-07T09:27:59.226Z,80.94
2023-05-07T09:30:30.600Z,79.01
2023-05-07T09:32:58.617Z,75.48
2023-05-07T09:35:28.449Z,73.86
2023-05-07T09:37:58.090Z,73.61
2023-05-07T09:40:28.639Z,71.30
2023-05-07T09:42:56.993Z,71.97
2023-05-07T09:45:25.797Z,72.81
2023-05-07T09:47:57.794Z,71.40
2023-05-07T09:50:30.435Z,72.85
2023-05-07T09:52:59.295Z,69.52
2023-05-07T09:55:29.071Z,69.29
2023-05-07T09:57:57.659Z,69.60
2023-05-07T10:00:27.686Z,69.21
2023-05-07T10:02:58.507Z,67.75
2023-05-07T10:05:27.219Z,68.10
2023-05-07T10:07:56.494Z,64.90
2023-05-07T10:10:24.840Z,61.58
2023-05-07T10:12:55.520Z,61.14
2023-05-07T10:15:25.739Z,60.25
2023-05-07T10:17:55.650Z,60.34
2023-05-07T10:20:23.829Z,58.61
2023-05-07T10:22:54.316Z,59.67
2023-05-07T10:25:25.246Z,60.50
2023-05-07T10:27:57.026Z,58.74
2023-05-07T10:30:33.079Z,59.56
2023-05-07T10:33:07.195Z,59.58
2023-05-07T10:35:41.690Z,60.26
2023-05-07T10:38:10.307Z,57.80
2023-05-07T10:40:38.487Z,58.97
2023-05-07T10:43:10.958Z,58.16
2023-05-07T10:45:39.183Z,57.81
2023-05-07T10:48:28.872Z,56.65
2023-05-07T10:51:20.482Z,54.89
2023-05-07T10:53:48.394Z,53.98
2023-05-07T10:56:29.974Z,52.85
2023-05-07T10:59:43.788Z,52.47
2023-05-07T11:02:15.428Z,51.88
2023-05-07T11:04:43.652Z,50.45
2023-05-07T11:07:33.772Z,50.74
2023-05-07T11:10:06.944Z,50.29
2023-05-07T11:13:05.074Z,52.37
2023-05-07T11:15:45.232Z,51.21
2023-05-07T11:18:16.029Z,49.81
2023-05-07T11:20:52.633Z,50.43
2023-05-07T11:24:00.815Z,50.27
2023-05-07T11:26:30.770Z,49.52
2023-05-07T11:29:01.271Z,48.85
2023-05-07T11:31:31.108Z,49.44
2023-05-07T11:34:01.761Z,47.29
2023-05-07T11:36:35.221Z,47.16
2023-05-07T11:39:03.183Z,46.46
2023-05-07T11:41:38.189Z,47.19
2023-05-07T11:44:06.518Z,45.96
2023-05-07T11:46:35.769Z,45.84
2023-05-07T11:49:05.571Z,46.84
2023-05-07T11:51:33.509Z,46.29
2023-05-07T11:54:01.394Z,46.22
2023-05-07T11:56:29.257Z,46.27
2023-05-07T11:58:57.191Z,46.76
2023-05-07T12:01:25.134Z,46.81
2023-05-07T12:03:53.079Z,46.40
2023-05-07T12:06:22.476Z,45.13
2023-05-07T12:08:50.411Z,45.62
2023-05-07T12:11:24.031Z,45.30
2023-05-07T12:13:52.104Z,45.07
2023-05-07T12:16:20.349Z,44.42
2023-05-07T12:18:49.276Z,43.35
2023-05-07T12:21:19.380Z,44.67
2023-05-07T12:23:49.128Z,44.04
2023-05-07T12:26:17.075Z,44.65
2023-05-07T12:28:44.992Z,44.60
2023-05-07T12:31:12.993Z,43.93
2023-05-07T12:33:42.201Z,41.66
2023-05-07T12:36:10.617Z,41.71
2023-05-07T12:38:40.001Z,41.23
2023-05-07T12:41:11.102Z,41.68
2023-05-07T12:43:39.394Z,41.67
2023-05-07T12:46:09.581Z,41.97
2023-05-07T12:48:41.077Z,42.68
2023-05-07T12:51:11.238Z,41.86
2023-05-07T12:53:43.306Z,42.22
2023-05-07T12:56:12.748Z,42.20
2023-05-07T12:58:40.821Z,42.08
2023-05-07T13:01:11.173Z,41.65
2023-05-07T13:03:40.329Z,42.29
2023-05-07T13:06:10.727Z,41.21
2023-05-07T13:08:41.432Z,41.08
2023-05-07T13:11:11.297Z,41.15
2023-05-07T13:13:41.968Z,40.56
2023-05-07T13:16:11.626Z,42.00
2023-05-07T13:18:41.339Z,41.31
2023-05-07T13:21:09.836Z,41.80
2023-05-07T13:23:39.729Z,41.82
2023-05-07T13:26:25.016Z,42.48
2023-05-07T13:28:55.932Z,41.96
2023-05-07T13:31:23.977Z,41.38
2023-05-07T13:33:52.326Z,42.73
2023-05-07T13:36:20.383Z,43.28
2023-05-07T13:38:48.591Z,42.36
2023-05-07T13:41:16.787Z,42.73
2023-05-07T13:43:44.722Z,43.34
2023-05-07T13:46:14.247Z,42.02
2023-05-07T13:48:42.285Z,41.83
2023-05-07T13:51:10.349Z,42.31
2023-05-07T13:53:38.344Z,42.38
2023-05-07T13:56:07.080Z,41.34
2023-05-07T13:58:36.505Z,41.68
2023-05-07T14:01:06.316Z,41.18
2023-05-07T14:03:36.307Z,41.09
2023-05-07T14:06:04.803Z,41.83
2023-05-07T14:08:32.886Z,42.64
2023-05-07T14:11:04.524Z,42.17
2023-05-07T14:13:32.963Z,42.50
2023-05-07T14:16:01.693Z,41.67
2023-05-07T14:18:30.144Z,42.23
2023-05-07T14:20:59.869Z,42.16
2023-05-07T14:23:28.294Z,42.50
2023-05-07T14:25:58.228Z,43.34
2023-05-07T14:28:26.368Z,43.95
2023-05-07T14:30:57.873Z,44.16
2023-05-07T14:33:29.155Z,44.57
2023-05-07T14:35:57.341Z,44.94
2023-05-07T14:38:26.888Z,46.25
2023-05-07T14:40:56.924Z,44.65
2023-05-07T14:43:30.399Z,44.49
2023-05-07T14:45:58.293Z,42.87
2023-05-07T14:48:26.469Z,43.15
2023-05-07T14:50:54.395Z,43.38
2023-05-07T14:53:22.698Z,43.01
2023-05-07T14:55:52.399Z,43.81
2023-05-07T14:58:22.383Z,43.68
2023-05-07T15:00:50.797Z,42.91
2023-05-07T15:03:19.951Z,43.12
2023-05-07T15:05:50.991Z,43.20
2023-05-07T15:08:20.073Z,43.19
2023-05-07T15:10:51.096Z,42.46
2023-05-07T15:13:20.539Z,42.81
2023-05-07T15:15:48.564Z,43.00
2023-05-07T15:18:17.192Z,42.95
2023-05-07T15:20:47.060Z,42.61
2023-05-07T15:23:15.416Z,42.24
2023-05-07T15:25:43.449Z,42.73
2023-05-07T15:28:12.575Z,42.90
2023-05-07T15:30:41.932Z,43.14
2023-05-07T15:33:09.887Z,43.03
2023-05-07T15:35:37.814Z,43.56
2023-05-07T15:38:06.411Z,43.03
2023-05-07T15:40:36.239Z,43.63
2023-05-07T15:43:04.150Z,44.51
2023-05-07T15:45:32.086Z,44.79
2023-05-07T15:48:01.411Z,44.07
2023-05-07T15:50:29.723Z,43.93
2023-05-07T15:52:58.125Z,43.68
2023-05-07T15:55:26.616Z,43.34
2023-05-07T15:57:55.188Z,43.27
2023-05-07T16:00:23.451Z,43.45
2023-05-07T16:02:51.705Z,43.16
2023-05-07T16:05:21.245Z,43.54
2023-05-07T16:07:49.120Z,43.24
2023-05-07T16:10:17.392Z,42.99
2023-05-07T16:12:45.438Z,43.60
2023-05-07T16:15:14.050Z,43.72
2023-05-07T16:17:42.217Z,43.69
2023-05-07T16:20:13.154Z,44.19
2023-05-07T16:22:42.640Z,44.25
2023-05-07T16:25:11.509Z,44.90
2023-05-07T16:27:39.664Z,45.91
2023-05-07T16:30:09.045Z,46.19
2023-05-07T16:32:37.205Z,47.23
2023-05-07T16:35:06.399Z,48.51
2023-05-07T16:37:35.144Z,49.95
2023-05-07T16:40:07.351Z,51.16
2023-05-07T16:42:35.558Z,52.41
2023-05-07T16:45:04.641Z,53.27
2023-05-07T16:47:32.917Z,53.64
2023-05-07T16:50:01.233Z,53.62
2023-05-07T16:52:31.088Z,54.06
2023-05-07T16:55:01.452Z,54.73
2023-05-07T16:57:31.130Z,56.12
2023-05-07T17:00:00.075Z,56.90
2023-05-07T17:02:28.533Z,58.01
2023-05-07T17:04:56.587Z,59.28
2023-05-07T17:07:26.527Z,60.65
2023-05-07T17:09:54.501Z,61.18
2023-05-07T17:12:22.723Z,61.55
2023-05-07T17:14:51.999Z,63.21
2023-05-07T17:17:20.428Z,63.41
2023-05-07T17:19:48.391Z,64.43
2023-05-07T17:22:16.455Z,65.99
2023-05-07T17:24:44.402Z,66.92
2023-05-07T17:27:12.371Z,67.52
2023-05-07T17:29:40.438Z,68.63
2023-05-07T17:32:09.845Z,72.06
2023-05-07T17:34:37.869Z,73.05
2023-05-07T17:37:05.721Z,74.22
2023-05-07T17:39:33.642Z,76.72
2023-05-07T17:42:01.636Z,77.22
2023-05-07T17:44:29.585Z,78.71
2023-05-07T17:46:57.632Z,79.35
2023-05-07T17:49:26.931Z,81.24
2023-05-07T17:51:55.726Z,82.91
2023-05-07T17:54:26.319Z,84.27
2023-05-07T17:56:54.454Z,84.41
2023-05-07T17:59:22.432Z,85.71
2023-05-07T18:01:53.012Z,87.67
2023-05-07T18:04:21.745Z,88.82
2023-05-07T18:06:51.346Z,89.89
2023-05-07T18:09:19.369Z,93.04
2023-05-07T18:11:47.229Z,93.99
2023-05-07T18:14:15.183Z,92.22
2023-05-07T18:16:43.323Z,94.04
2023-05-07T18:19:12.303Z,97.63
2023-05-07T18:21:40.420Z,97.33
2023-05-07T18:24:11.130Z,100.00
2023-05-07T18:26:39.238Z,100.00
2023-05-07T18:29:07.185Z,100.00
2023-05-07T18:31:37.559Z,100.00
2023-05-07T18:34:06.636Z,100.00
2023-05-07T18:36:34.884Z,100.00
2023-05-07T18:39:03.507Z,100.00
2023-05-07T18:41:32.844Z,100.00
2023-05-07T18:44:00.848Z,100.00
2023-05-07T18:46:29.507Z,100.00
2023-05-07T18:48:57.481Z,100.00
2023-05-07T18:51:25.472Z,100.00
2023-05-07T18:53:53.380Z,100.00
2023-05-07T18:56:21.827Z,100.00
2023-05-07T18:58:51.172Z,100.00
2023-05-07T19:01:19.101Z,100.00
2023-05-07T19:03:47.116Z,100.00
2023-05-07T19:06:15.172Z,100.00
2023-05-07T19:08:43.234Z,100.00
2023-05-07T19:11:11.200Z,100.00
2023-05-07T19:13:39.196Z,100.00
2023-05-07T19:16:10.394Z,100.00
2023-05-07T19:18:38.505Z,100.00
2023-05-07T19:21:06.724Z,100.00
2023-05-07T19:23:37.087Z,100.00
2023-05-07T19:26:04.972Z,100.00
2023-05-07T19:28:32.920Z,100.00
2023-05-07T19:31:00.953Z,100.00
2023-05-07T19:33:30.869Z,100.00
2023-05-07T19:35:59.839Z,100.00
2023-05-07T19:38:28.010Z,100.00
2023-05-07T19:40:57.376Z,100.00
2023-05-07T19:43:25.391Z,100.00
2023-05-07T19:45:55.072Z,100.00
2023-05-07T19:48:22.991Z,100.00
2023-05-07T19:50:52.255Z,100.00
2023-05-07T19:53:20.353Z,100.00
2023-05-07T19:55:48.256Z,100.00
2023-05-07T19:58:16.926Z,100.00
2023-05-07T20:00:45.145Z,100.00
2023-05-07T20:03:18.433Z,100.00
2023-05-07T20:05:47.208Z,100.00
2023-05-07T20:08:16.495Z,100.00
2023-05-07T20:10:44.680Z,100.00
2023-05-07T20:13:12.792Z,100.00
2023-05-07T20:15:41.060Z,100.00
2023-05-07T20:18:09.308Z,100.00
2023-05-07T20:20:37.516Z,100.00
2023-05-07T20:23:05.420Z,100.00
2023-05-07T20:25:34.686Z,100.00
2023-05-07T20:28:02.963Z,100.00
2023-05-07T20:30:30.839Z,100.00
2023-05-07T20:32:59.059Z,100.00
2023-05-07T20:35:27.140Z,100.00
2023-05-07T20:37:55.106Z,100.00
2023-05-07T20:40:23.000Z,100.00
2023-05-07T20:42:52.616Z,100.00
2023-05-07T20:45:20.899Z,100.00
2023-05-07T20:47:48.815Z,100.00
2023-05-07T20:50:16.829Z,100.00
2023-05-07T20:52:45.226Z,100.00
2023-05-07T20:55:13.145Z,100.00
2023-05-07T20:57:43.746Z,100.00
2023-05-07T21:00:14.225Z,100.00
2023-05-07T21:02:42.584Z,100.00
2023-05-07T21:05:10.843Z,100.00
2023-05-07T21:07:38.810Z,100.00
2023-05-07T21:10:07.846Z,100.00
2023-05-07T21:12:39.933Z,100.00
2023-05-07T21:15:11.411Z,100.00
2023-05-07T21:17:40.876Z,100.00
2023-05-07T21:20:10.101Z,100.00
2023-05-07T21:22:38.016Z,100.00
2023-05-07T21:25:06.495Z,100.00
2023-05-07T21:27:34.402Z,100.00
2023-05-07T21:30:04.892Z,100.00
2023-05-07T21:32:33.070Z,100.00
2023-05-07T21:35:02.340Z,100.00
2023-05-07T21:37:30.392Z,100.00
2023-05-07T21:39:58.349Z,100.00
2023-05-07T21:42:26.452Z,100.00
2023-05-07T21:44:54.419Z,100.00
2023-05-07T21:47:22.365Z,100.00
2023-05-07T21:49:53.234Z,100.00
2023-05-07T21:52:25.985Z,100.00
2023-05-07T21:54:54.047Z,100.00
2023-05-07T21:57:22.274Z,100.00
2023-05-07T21:59:50.184Z,100.00
2023-05-07T22:02:18.218Z,100.00
2023-05-07T22:04:46.642Z,100.00
2023-05-07T22:07:14.586Z,100.00
2023-05-07T22:09:43.851Z,100.00
2023-05-07T22:12:11.779Z,100.00
2023-05-07T22:14:39.706Z,100.00
2023-05-07T22:17:07.652Z,100.00
2023-05-07T22:19:35.551Z,100.00
2023-05-07T22:22:03.615Z,100.00
2023-05-07T22:24:31.685Z,100.00
2023-05-07T22:27:00.970Z,100.00
2023-05-07T22:29:29.260Z,100.00
2023-05-07T22:31:57.176Z,100.00
2023-05-07T22:34:25.098Z,100.00
2023-05-07T22:36:53.038Z,100.00
2023-05-07T22:39:21.007Z,100.00
2023-05-07T22:41:49.612Z,100.00
2023-05-07T22:44:18.916Z,100.00
2023-05-07T22:46:46.775Z,100.00
2023-05-07T22:49:14.618Z,100.00
2023-05-07T22:51:42.524Z,100.00
2023-05-07T22:54:11.019Z,100.00
2023-05-07T22:56:40.815Z,100.00
2023-05-07T22:59:08.971Z,100.00
2023-05-07T23:01:38.491Z,100.00
2023-05-07T23:04:06.946Z,100.00
2023-05-07T23:06:34.866Z,100.00
2023-05-07T23:09:02.811Z,100.00
2023-05-07T23:11:30.681Z,100.00
2023-05-07T23:13:58.828Z,100.00
2023-05-07T23:16:27.208Z,100.00
2023-05-07T23:18:56.795Z,100.00
2023-05-07T23:21:24.866Z,100.00
2023-05-07T23:23:52.812Z,100.00
2023-05-07T23:26:20.897Z,100.00
2023-05-07T23:28:48.884Z,100.00
2023-05-07T23:31:16.832Z,100.00
2023-05-07T23:33:44.753Z,100.00
2023-05-07T23:36:14.049Z,100.00
2023-05-07T23:38:42.000Z,100.00
2023-05-07T23:41:09.996Z,100.00
2023-05-07T23:43:37.936Z,100.00
2023-05-07T23:46:05.846Z,100.00
2023-05-07T23:48:33.770Z,100.00
2023-05-07T23:51:01.634Z,100.00
2023-05-07T23:53:30.962Z,100.00
2023-05-07T23:55:58.825Z,100.00
2023-05-07T23:58:26.990Z,100.00
